Time,TemperatureF,DewpointF,PressureIn,WindDirection,WindDirectionDegrees,WindSpeedMPH,WindSpeedGustMPH,Humidity,HourlyPrecipIn,Conditions,Clouds,dailyrainin,SoftwareType,DateUTC
2014-09-18 00:00:00,53.4,11.0,29.14,ENE,68,1.3,2.0,18,0.00,,,0.00,VWS V15.00,2014-09-18 04:00:00,
2014-09-18 00:05:00,53.2,10.9,29.14,ENE,68,0.0,0.0,18,0.00,,,0.00,VWS V15.00,2014-09-18 04:05:00,
2014-09-18 00:10:00,53.1,10.7,29.14,ENE,68,0.0,0.0,18,0.00,,,0.00,VWS V15.00,2014-09-18 04:10:00,
2014-09-18 00:15:00,52.9,10.6,29.14,ENE,68,0.0,0.0,18,0.00,,,0.00,VWS V15.00,2014-09-18 04:15:00,
2014-09-18 00:20:00,52.9,10.6,29.14,ENE,68,0.0,0.0,18,0.00,,,0.00,VWS V15.00,2014-09-18 04:20:00,
2014-09-18 00:25:00,52.9,10.6,29.14,ENE,68,0.0,0.0,18,0.00,,,0.00,VWS V15.00,2014-09-18 04:25:00,
2014-09-18 00:30:00,52.5,10.2,29.14,ENE,68,0.0,0.0,18,0.00,,,0.00,VWS V15.00,2014-09-18 04:30:00,
2014-09-18 00:35:00,52.5,10.2,29.14,ENE,68,0.0,0.0,18,0.00,,,0.00,VWS V15.00,2014-09-18 04:35:00,
2014-09-18 00:40:00,52.5,10.2,29.14,ENE,68,0.0,0.0,18,0.00,,,0.00,VWS V15.00,2014-09-18 04:40:00,
2014-09-18 00:45:00,52.5,10.2,29.14,ENE,68,0.0,0.0,18,0.00,,,0.00,VWS V15.00,2014-09-18 04:45:00,
2014-09-18 00:50:00,52.3,10.1,29.14,ENE,68,0.0,0.0,18,0.00,,,0.00,VWS V15.00,2014-09-18 04:50:00,
2014-09-18 00:55:00,52.3,10.1,29.14,ESE,112,0.0,0.0,18,0.00,,,0.00,VWS V15.00,2014-09-18 04:55:00,
2014-09-18 00:58:00,52.2,10.0,29.14,ESE,112,0.0,0.0,18,0.00,,,0.00,VWS V15.00,2014-09-18 04:58:00,
2014-09-18 01:03:00,52.0,9.8,29.14,ESE,112,0.0,0.0,18,0.00,,,0.00,VWS V15.00,2014-09-18 05:03:00,
2014-09-18 01:08:00,51.8,9.7,29.12,ESE,112,0.0,0.0,18,0.00,,,0.00,VWS V15.00,2014-09-18 05:08:00,
2014-09-18 01:13:00,51.6,10.7,29.12,SE,135,0.0,0.0,19,0.00,,,0.00,VWS V15.00,2014-09-18 05:13:00,
2014-09-18 01:18:00,51.6,10.7,29.12,ENE,68,0.0,0.0,19,0.00,,,0.00,VWS V15.00,2014-09-18 05:18:00,
2014-09-18 01:23:00,51.6,10.7,29.14,ENE,68,0.0,0.0,19,0.00,,,0.00,VWS V15.00,2014-09-18 05:23:00,
2014-09-18 01:28:00,51.6,10.7,29.14,ENE,68,0.0,0.0,19,0.00,,,0.00,VWS V15.00,2014-09-18 05:28:00,
2014-09-18 01:33:00,51.6,10.7,29.14,ENE,68,0.0,0.0,19,0.00,,,0.00,VWS V15.00,2014-09-18 05:33:00,
2014-09-18 01:38:00,51.4,10.6,29.14,ENE,68,0.0,0.0,19,0.00,,,0.00,VWS V15.00,2014-09-18 05:38:00,
2014-09-18 01:43:00,51.1,10.3,29.14,ENE,68,0.0,0.0,19,0.00,,,0.00,VWS V15.00,2014-09-18 05:43:00,
2014-09-18 01:48:00,50.9,12.4,29.14,ENE,68,0.0,0.0,21,0.00,,,0.00,VWS V15.00,2014-09-18 05:48:00,
2014-09-18 01:53:00,50.9,12.4,29.12,ENE,68,0.0,0.0,21,0.00,,,0.00,VWS V15.00,2014-09-18 05:53:00,
2014-09-18 01:58:00,50.7,12.2,29.12,ENE,68,0.0,0.0,21,0.00,,,0.00,VWS V15.00,2014-09-18 05:58:00,
2014-09-18 02:03:00,50.7,12.2,29.12,ENE,68,0.0,0.0,21,0.00,,,0.00,VWS V15.00,2014-09-18 06:03:00,
2014-09-18 02:08:00,50.7,12.2,29.12,ENE,68,0.0,0.0,21,0.00,,,0.00,VWS V15.00,2014-09-18 06:08:00,
2014-09-18 02:13:00,50.7,12.2,29.12,ENE,68,0.0,0.0,21,0.00,,,0.00,VWS V15.00,2014-09-18 06:13:00,
2014-09-18 02:18:00,50.7,12.2,29.12,ENE,68,0.0,0.0,21,0.00,,,0.00,VWS V15.00,2014-09-18 06:18:00,
2014-09-18 02:23:00,50.7,12.2,29.14,ENE,68,0.0,0.0,21,0.00,,,0.00,VWS V15.00,2014-09-18 06:23:00,
2014-09-18 02:28:00,50.5,12.1,29.14,ENE,68,2.2,2.2,21,0.00,,,0.00,VWS V15.00,2014-09-18 06:28:00,
2014-09-18 02:33:00,50.5,12.1,29.14,ENE,68,0.0,0.0,21,0.00,,,0.00,VWS V15.00,2014-09-18 06:33:00,
2014-09-18 02:38:00,50.5,12.1,29.14,ENE,68,0.0,0.0,21,0.00,,,0.00,VWS V15.00,2014-09-18 06:38:00,
2014-09-18 02:43:00,50.5,12.1,29.14,ENE,68,0.0,0.9,21,0.00,,,0.00,VWS V15.00,2014-09-18 06:43:00,
2014-09-18 02:48:00,50.5,12.1,29.14,ENE,68,0.0,0.0,21,0.00,,,0.00,VWS V15.00,2014-09-18 06:48:00,
2014-09-18 02:53:00,50.4,11.9,29.14,ENE,68,0.0,0.0,21,0.00,,,0.00,VWS V15.00,2014-09-18 06:53:00,
2014-09-18 02:58:00,50.2,11.8,29.14,ENE,68,0.0,0.0,21,0.00,,,0.00,VWS V15.00,2014-09-18 06:58:00,
2014-09-18 03:03:00,50.2,11.8,29.14,ENE,68,0.0,0.0,21,0.00,,,0.00,VWS V15.00,2014-09-18 07:03:00,
2014-09-18 03:08:00,50.2,14.8,29.12,ENE,68,0.0,0.0,24,0.00,,,0.00,VWS V15.00,2014-09-18 07:08:00,
2014-09-18 03:13:00,50.0,11.6,29.12,ENE,68,0.0,0.0,21,0.00,,,0.00,VWS V15.00,2014-09-18 07:13:00,
2014-09-18 03:18:00,50.0,14.6,29.12,ENE,68,0.0,0.0,24,0.00,,,0.00,VWS V15.00,2014-09-18 07:18:00,
2014-09-18 03:23:00,50.0,14.6,29.14,ENE,68,0.0,0.0,24,0.00,,,0.00,VWS V15.00,2014-09-18 07:23:00,
2014-09-18 03:28:00,50.0,14.6,29.14,ENE,68,0.0,0.0,24,0.00,,,0.00,VWS V15.00,2014-09-18 07:28:00,
2014-09-18 03:33:00,50.0,14.6,29.14,ENE,68,0.0,0.0,24,0.00,,,0.00,VWS V15.00,2014-09-18 07:33:00,
2014-09-18 03:38:00,50.0,14.6,29.14,ENE,68,0.0,0.0,24,0.00,,,0.00,VWS V15.00,2014-09-18 07:38:00,
2014-09-18 03:43:00,50.0,14.6,29.14,ENE,68,0.0,0.0,24,0.00,,,0.00,VWS V15.00,2014-09-18 07:43:00,
2014-09-18 03:48:00,50.0,14.6,29.14,ENE,68,0.0,0.0,24,0.00,,,0.00,VWS V15.00,2014-09-18 07:48:00,
2014-09-18 03:53:00,50.0,14.6,29.14,ENE,68,0.0,0.0,24,0.00,,,0.00,VWS V15.00,2014-09-18 07:53:00,
2014-09-18 03:58:00,50.0,14.6,29.14,ENE,68,0.0,0.0,24,0.00,,,0.00,VWS V15.00,2014-09-18 07:58:00,
2014-09-18 04:03:00,49.8,16.3,29.14,ENE,68,0.0,0.0,26,0.00,,,0.00,VWS V15.00,2014-09-18 08:03:00,
2014-09-18 04:08:00,49.8,14.5,29.14,ENE,68,0.0,0.0,24,0.00,,,0.00,VWS V15.00,2014-09-18 08:08:00,
2014-09-18 04:13:00,49.6,14.3,29.14,ENE,68,0.0,0.0,24,0.00,,,0.00,VWS V15.00,2014-09-18 08:13:00,
2014-09-18 04:18:00,49.6,16.2,29.14,NE,45,0.0,0.0,26,0.00,,,0.00,VWS V15.00,2014-09-18 08:18:00,
2014-09-18 04:23:00,49.5,16.0,29.14,NE,45,0.0,0.0,26,0.00,,,0.00,VWS V15.00,2014-09-18 08:23:00,
2014-09-18 04:28:00,49.5,16.9,29.14,NNE,22,2.0,2.0,27,0.00,,,0.00,VWS V15.00,2014-09-18 08:28:00,
2014-09-18 04:33:00,49.5,16.0,29.14,NE,45,2.0,2.0,26,0.00,,,0.00,VWS V15.00,2014-09-18 08:33:00,
2014-09-18 04:38:00,49.5,16.9,29.14,NNE,22,1.6,1.6,27,0.00,,,0.00,VWS V15.00,2014-09-18 08:38:00,
2014-09-18 04:43:00,49.5,16.9,29.14,NNE,22,1.6,1.6,27,0.00,,,0.00,VWS V15.00,2014-09-18 08:43:00,
2014-09-18 04:48:00,49.6,17.0,29.14,NNE,22,1.3,1.6,27,0.00,,,0.00,VWS V15.00,2014-09-18 08:48:00,
2014-09-18 04:53:00,49.8,17.2,29.12,NNE,22,1.6,2.2,27,0.00,,,0.00,VWS V15.00,2014-09-18 08:53:00,
2014-09-18 04:58:00,49.8,17.2,29.12,NNE,22,2.0,2.2,27,0.00,,,0.00,VWS V15.00,2014-09-18 08:58:00,
2014-09-18 05:03:00,50.0,17.4,29.12,NNE,22,1.6,1.6,27,0.00,,,0.00,VWS V15.00,2014-09-18 09:03:00,
2014-09-18 05:08:00,49.8,17.2,29.14,NE,45,0.0,0.0,27,0.00,,,0.00,VWS V15.00,2014-09-18 09:08:00,
2014-09-18 05:13:00,49.8,17.2,29.14,NE,45,0.0,0.0,27,0.00,,,0.00,VWS V15.00,2014-09-18 09:13:00,
2014-09-18 05:18:00,49.6,17.0,29.14,NE,45,0.0,0.0,27,0.00,,,0.00,VWS V15.00,2014-09-18 09:18:00,
2014-09-18 05:23:00,49.6,17.0,29.14,NE,45,0.0,0.0,27,0.00,,,0.00,VWS V15.00,2014-09-18 09:23:00,
2014-09-18 05:28:00,49.8,17.2,29.14,NE,45,0.0,0.0,27,0.00,,,0.00,VWS V15.00,2014-09-18 09:28:00,
2014-09-18 05:33:00,49.8,17.2,29.14,NE,45,0.0,0.0,27,0.00,,,0.00,VWS V15.00,2014-09-18 09:33:00,
2014-09-18 05:38:00,49.8,17.2,29.14,NNE,22,0.0,0.0,27,0.00,,,0.00,VWS V15.00,2014-09-18 09:38:00,
2014-09-18 05:43:00,50.0,17.4,29.14,NE,45,0.0,0.0,27,0.00,,,0.00,VWS V15.00,2014-09-18 09:43:00,
2014-09-18 05:48:00,50.0,17.4,29.14,NNE,22,0.0,0.0,27,0.00,,,0.00,VWS V15.00,2014-09-18 09:48:00,
2014-09-18 05:53:00,50.0,17.4,29.14,ENE,68,1.6,1.6,27,0.00,,,0.00,VWS V15.00,2014-09-18 09:53:00,
2014-09-18 05:58:00,50.0,17.4,29.14,NNE,22,0.0,1.1,27,0.00,,,0.00,VWS V15.00,2014-09-18 09:58:00,
2014-09-18 06:03:00,50.0,17.4,29.14,NE,45,2.0,2.0,27,0.00,,,0.00,VWS V15.00,2014-09-18 10:03:00,
2014-09-18 06:08:00,50.0,17.4,29.14,NNE,22,2.0,2.0,27,0.00,,,0.00,VWS V15.00,2014-09-18 10:08:00,
2014-09-18 06:13:00,50.0,17.4,29.14,NNE,22,2.5,2.5,27,0.00,,,0.00,VWS V15.00,2014-09-18 10:13:00,
2014-09-18 06:18:00,50.2,18.4,29.14,NNE,22,2.2,2.5,28,0.00,,,0.00,VWS V15.00,2014-09-18 10:18:00,
2014-09-18 06:23:00,50.2,18.4,29.17,NE,45,2.5,2.5,28,0.00,,,0.00,VWS V15.00,2014-09-18 10:23:00,
2014-09-18 06:25:00,50.2,18.4,29.17,ENE,68,2.0,2.0,28,0.00,,,0.00,VWS V15.00,2014-09-18 10:25:00,
2014-09-18 06:30:00,50.2,18.4,29.17,NE,45,1.6,2.0,28,0.00,,,0.00,VWS V15.00,2014-09-18 10:30:00,
2014-09-18 06:35:00,50.2,18.4,29.17,NE,45,1.6,1.6,28,0.00,,,0.00,VWS V15.00,2014-09-18 10:35:00,
2014-09-18 06:40:00,50.2,17.5,29.14,NE,45,1.6,1.6,27,0.00,,,0.00,VWS V15.00,2014-09-18 10:40:00,
2014-09-18 06:45:00,50.2,17.5,29.14,NNE,22,2.0,2.5,27,0.00,,,0.00,VWS V15.00,2014-09-18 10:45:00,
2014-09-18 06:50:00,50.2,18.4,29.14,NE,45,2.0,2.0,28,0.00,,,0.00,VWS V15.00,2014-09-18 10:50:00,
2014-09-18 06:53:00,50.2,18.4,29.17,NNE,22,2.0,2.0,28,0.00,,,0.00,VWS V15.00,2014-09-18 10:53:00,
2014-09-18 06:58:00,50.2,18.4,29.17,NNE,22,2.0,2.5,28,0.00,,,0.00,VWS V15.00,2014-09-18 10:58:00,
2014-09-18 07:03:00,50.2,18.4,29.17,NNE,22,2.0,2.2,28,0.00,,,0.00,VWS V15.00,2014-09-18 11:03:00,
2014-09-18 07:08:00,50.2,18.4,29.17,NE,45,2.0,2.0,28,0.00,,,0.00,VWS V15.00,2014-09-18 11:08:00,
2014-09-18 07:13:00,50.2,17.5,29.17,NE,45,1.3,2.0,27,0.00,,,0.00,VWS V15.00,2014-09-18 11:13:00,
2014-09-18 07:18:00,50.2,17.5,29.17,NE,45,1.3,1.6,27,0.00,,,0.00,VWS V15.00,2014-09-18 11:18:00,
2014-09-18 07:23:00,50.2,17.5,29.17,NE,45,2.0,2.0,27,0.00,,,0.00,VWS V15.00,2014-09-18 11:23:00,
2014-09-18 07:28:00,50.2,17.5,29.17,NE,45,1.1,1.3,27,0.00,,,0.00,VWS V15.00,2014-09-18 11:28:00,
2014-09-18 07:33:00,50.2,17.5,29.17,NE,45,2.0,2.0,27,0.00,,,0.00,VWS V15.00,2014-09-18 11:33:00,
2014-09-18 07:38:00,50.4,17.7,29.17,NNE,22,2.0,2.2,27,0.00,,,0.00,VWS V15.00,2014-09-18 11:38:00,
2014-09-18 07:43:00,50.4,17.7,29.17,NNE,22,2.2,2.2,27,0.00,,,0.00,VWS V15.00,2014-09-18 11:43:00,
2014-09-18 07:48:00,50.5,17.8,29.17,NNE,22,2.0,2.0,27,0.00,,,0.00,VWS V15.00,2014-09-18 11:48:00,
2014-09-18 07:53:00,50.7,18.0,29.17,NNE,22,1.6,2.0,27,0.00,,,0.00,VWS V15.00,2014-09-18 11:53:00,
2014-09-18 07:58:00,50.9,18.1,29.17,NE,45,0.0,0.0,27,0.00,,,0.00,VWS V15.00,2014-09-18 11:58:00,
2014-09-18 08:03:00,51.3,18.4,29.17,NE,45,0.0,0.0,27,0.00,,,0.00,VWS V15.00,2014-09-18 12:03:00,
2014-09-18 08:08:00,51.4,18.6,29.20,NNE,22,0.0,0.0,27,0.00,,,0.00,VWS V15.00,2014-09-18 12:08:00,
2014-09-18 08:13:00,51.8,18.9,29.20,NE,45,0.0,0.0,27,0.00,,,0.00,VWS V15.00,2014-09-18 12:13:00,
2014-09-18 08:18:00,52.2,18.3,29.20,NNE,22,2.2,2.2,26,0.00,,,0.00,VWS V15.00,2014-09-18 12:18:00,
2014-09-18 08:23:00,52.5,18.6,29.20,NNE,22,2.9,3.6,26,0.00,,,0.00,VWS V15.00,2014-09-18 12:23:00,
2014-09-18 08:28:00,52.9,19.0,29.20,NNE,22,3.8,4.3,26,0.00,,,0.00,VWS V15.00,2014-09-18 12:28:00,
2014-09-18 08:33:00,53.2,16.4,29.20,NNE,22,2.9,3.6,23,0.00,,,0.00,VWS V15.00,2014-09-18 12:33:00,
2014-09-18 08:38:00,53.4,14.5,29.20,NNE,22,5.6,5.6,21,0.00,,,0.00,VWS V15.00,2014-09-18 12:38:00,
2014-09-18 08:43:00,54.0,13.8,29.20,NNE,22,3.1,4.0,20,0.00,,,0.00,VWS V15.00,2014-09-18 12:43:00,
2014-09-18 08:48:00,54.3,14.1,29.20,NNE,22,2.9,3.1,20,0.00,,,0.00,VWS V15.00,2014-09-18 12:48:00,
2014-09-18 08:53:00,54.5,14.3,29.20,North,0,3.4,3.4,20,0.00,,,0.00,VWS V15.00,2014-09-18 12:53:00,
2014-09-18 08:58:00,55.0,14.7,29.20,NNE,22,2.9,2.9,20,0.00,,,0.00,VWS V15.00,2014-09-18 12:58:00,
2014-09-18 09:03:00,55.6,15.2,29.20,NE,45,3.6,3.6,20,0.00,,,0.00,VWS V15.00,2014-09-18 13:03:00,
2014-09-18 09:08:00,56.1,11.9,29.20,NNE,22,3.1,3.1,17,0.00,,,0.00,VWS V15.00,2014-09-18 13:08:00,
2014-09-18 09:13:00,56.5,12.2,29.20,NNE,22,3.4,4.0,17,0.00,,,0.00,VWS V15.00,2014-09-18 13:13:00,
2014-09-18 09:14:00,56.7,12.4,29.20,NNE,22,2.5,2.5,17,0.00,,,0.00,VWS V15.00,2014-09-18 13:14:00,
2014-09-18 09:19:00,57.2,12.8,29.20,NE,45,2.5,2.5,17,0.00,,,0.00,VWS V15.00,2014-09-18 13:19:00,
2014-09-18 09:24:00,57.6,13.1,29.20,ENE,68,2.2,2.7,17,0.00,,,0.00,VWS V15.00,2014-09-18 13:24:00,
2014-09-18 09:29:00,58.1,13.5,29.20,NE,45,2.7,2.7,17,0.00,,,0.00,VWS V15.00,2014-09-18 13:29:00,
2014-09-18 09:34:00,59.0,14.3,29.20,NE,45,2.5,2.7,17,0.00,,,0.00,VWS V15.00,2014-09-18 13:34:00,
2014-09-18 09:39:00,60.4,15.4,29.20,NE,45,2.9,2.9,17,0.00,,,0.00,VWS V15.00,2014-09-18 13:39:00,
2014-09-18 09:44:00,61.3,14.8,29.20,NE,45,3.1,3.1,16,0.00,,,0.00,VWS V15.00,2014-09-18 13:44:00,
2014-09-18 09:49:00,62.4,15.7,29.20,NNE,22,2.9,2.9,16,0.00,,,0.00,VWS V15.00,2014-09-18 13:49:00,
2014-09-18 09:54:00,63.3,16.4,29.20,North,0,3.8,4.7,16,0.00,,,0.00,VWS V15.00,2014-09-18 13:54:00,
2014-09-18 09:59:00,64.2,17.1,29.20,ENE,68,4.3,5.6,16,0.00,,,0.00,VWS V15.00,2014-09-18 13:59:00,
2014-09-18 10:04:00,64.4,15.8,29.20,NNE,22,3.6,3.6,15,0.00,,,0.00,VWS V15.00,2014-09-18 14:04:00,
2014-09-18 10:09:00,65.1,16.4,29.23,ENE,68,3.1,3.6,15,0.00,,,0.00,VWS V15.00,2014-09-18 14:09:00,
2014-09-18 10:14:00,64.6,15.9,29.23,NE,45,6.5,6.5,15,0.00,,,0.00,VWS V15.00,2014-09-18 14:14:00,
2014-09-18 10:19:00,64.2,17.1,29.23,NNE,22,3.6,6.3,16,0.00,,,0.00,VWS V15.00,2014-09-18 14:19:00,
2014-09-18 10:24:00,65.3,16.5,29.26,NNE,22,3.8,3.8,15,0.00,,,0.00,VWS V15.00,2014-09-18 14:24:00,
2014-09-18 10:29:00,65.7,16.8,29.26,NNE,22,2.7,4.9,15,0.00,,,0.00,VWS V15.00,2014-09-18 14:29:00,
2014-09-18 10:34:00,65.8,16.9,29.26,NNW,338,2.7,2.7,15,0.00,,,0.00,VWS V15.00,2014-09-18 14:34:00,
2014-09-18 10:39:00,66.0,17.1,29.26,North,0,3.1,3.1,15,0.00,,,0.00,VWS V15.00,2014-09-18 14:39:00,
2014-09-18 10:44:00,66.0,17.1,29.26,NE,45,2.7,3.8,15,0.00,,,0.00,VWS V15.00,2014-09-18 14:44:00,
2014-09-18 10:49:00,66.2,17.2,29.26,NNE,22,2.9,2.9,15,0.00,,,0.00,VWS V15.00,2014-09-18 14:49:00,
2014-09-18 10:54:00,66.0,17.1,29.26,NE,45,3.8,4.3,15,0.00,,,0.00,VWS V15.00,2014-09-18 14:54:00,
2014-09-18 10:59:00,66.2,17.2,29.26,NNW,338,4.3,4.3,15,0.00,,,0.00,VWS V15.00,2014-09-18 14:59:00,
2014-09-18 11:04:00,67.3,18.1,29.26,NNE,22,3.8,3.8,15,0.00,,,0.00,VWS V15.00,2014-09-18 15:04:00,
2014-09-18 11:09:00,67.8,18.5,29.26,NE,45,4.0,7.6,15,0.00,,,0.00,VWS V15.00,2014-09-18 15:09:00,
2014-09-18 11:14:00,68.7,19.2,29.26,NE,45,4.9,4.9,15,0.00,,,0.00,VWS V15.00,2014-09-18 15:14:00,
2014-09-18 11:19:00,68.7,19.2,29.26,NNE,22,4.9,5.8,15,0.00,,,0.00,VWS V15.00,2014-09-18 15:19:00,
2014-09-18 11:24:00,68.7,19.2,29.26,NNE,22,5.8,5.8,15,0.00,,,0.00,VWS V15.00,2014-09-18 15:24:00,
2014-09-18 11:29:00,69.6,20.0,29.26,NNE,22,2.7,2.7,15,0.00,,,0.00,VWS V15.00,2014-09-18 15:29:00,
2014-09-18 11:34:00,70.2,18.8,29.26,NNW,338,4.0,4.0,14,0.00,,,0.00,VWS V15.00,2014-09-18 15:34:00,
2014-09-18 11:39:00,70.5,19.1,29.26,NNE,22,3.6,3.6,14,0.00,,,0.00,VWS V15.00,2014-09-18 15:39:00,
2014-09-18 11:44:00,72.3,20.5,29.26,NE,45,4.3,4.3,14,0.00,,,0.00,VWS V15.00,2014-09-18 15:44:00,
2014-09-18 11:48:00,72.5,20.6,29.26,ENE,68,2.9,2.9,14,0.00,,,0.00,VWS V15.00,2014-09-18 15:48:00,
2014-09-18 11:53:00,72.7,20.8,29.26,NE,45,3.8,5.4,14,0.00,,,0.00,VWS V15.00,2014-09-18 15:53:00,
2014-09-18 11:58:00,73.6,19.8,29.26,East,90,1.6,3.1,13,0.00,,,0.00,VWS V15.00,2014-09-18 15:58:00,
2014-09-18 12:03:00,73.8,19.9,29.26,ENE,68,6.0,6.0,13,0.00,,,0.00,VWS V15.00,2014-09-18 16:03:00,
2014-09-18 12:08:00,73.8,19.9,29.26,North,0,7.4,7.4,13,0.00,,,0.00,VWS V15.00,2014-09-18 16:08:00,
2014-09-18 12:13:00,73.2,21.2,29.26,NNW,338,3.1,3.1,14,0.00,,,0.00,VWS V15.00,2014-09-18 16:13:00,
2014-09-18 12:18:00,74.7,20.6,29.26,ENE,68,3.4,4.7,13,0.00,,,0.00,VWS V15.00,2014-09-18 16:18:00,
2014-09-18 12:23:00,74.7,20.6,29.26,ENE,68,3.8,3.8,13,0.00,,,0.00,VWS V15.00,2014-09-18 16:23:00,
2014-09-18 12:28:00,74.7,20.6,29.26,NE,45,4.9,4.9,13,0.00,,,0.00,VWS V15.00,2014-09-18 16:28:00,
2014-09-18 12:33:00,74.7,20.6,29.26,North,0,2.0,2.0,13,0.00,,,0.00,VWS V15.00,2014-09-18 16:33:00,
2014-09-18 12:38:00,76.5,22.0,29.23,NNE,22,5.4,5.4,13,0.00,,,0.00,VWS V15.00,2014-09-18 16:38:00,
2014-09-18 12:43:00,77.0,22.4,29.23,ENE,68,4.0,4.0,13,0.00,,,0.00,VWS V15.00,2014-09-18 16:43:00,
2014-09-18 12:48:00,75.9,21.6,29.23,NNE,22,5.8,5.8,13,0.00,,,0.00,VWS V15.00,2014-09-18 16:48:00,
2014-09-18 12:53:00,77.0,22.4,29.23,NNE,22,3.4,3.6,13,0.00,,,0.00,VWS V15.00,2014-09-18 16:53:00,